sensor_id;sensor_type;location;lat;lon;timestamp;P1;durP1;ratioP1;P2;durP2;ratioP2
63005;SDS011;53704;52.532;6.426;2022-08-07T00:01:04;6.32;;;5.93;;
63005;SDS011;53704;52.532;6.426;2022-08-07T00:03:30;7.05;;;6.35;;
63005;SDS011;53704;52.532;6.426;2022-08-07T00:05:56;16.42;;;6.80;;
63005;SDS011;53704;52.532;6.426;2022-08-07T00:08:22;10.60;;;6.35;;
63005;SDS011;53704;52.532;6.426;2022-08-07T00:10:48;6.78;;;6.32;;
63005;SDS011;53704;52.532;6.426;2022-08-07T00:13:14;7.93;;;6.28;;
63005;SDS011;53704;52.532;6.426;2022-08-07T00:15:42;10.00;;;6.88;;
63005;SDS011;53704;52.532;6.426;2022-08-07T00:18:08;6.78;;;6.13;;
63005;SDS011;53704;52.532;6.426;2022-08-07T00:20:34;6.70;;;6.15;;
63005;SDS011;53704;52.532;6.426;2022-08-07T00:23:00;7.25;;;6.65;;
63005;SDS011;53704;52.532;6.426;2022-08-07T00:25:25;6.90;;;6.25;;
63005;SDS011;53704;52.532;6.426;2022-08-07T00:27:51;7.53;;;6.68;;
63005;SDS011;53704;52.532;6.426;2022-08-07T00:30:17;7.45;;;6.00;;
63005;SDS011;53704;52.532;6.426;2022-08-07T00:32:43;10.00;;;7.63;;
63005;SDS011;53704;52.532;6.426;2022-08-07T00:35:11;7.38;;;6.40;;
63005;SDS011;53704;52.532;6.426;2022-08-07T00:37:36;7.72;;;7.07;;
63005;SDS011;53704;52.532;6.426;2022-08-07T00:40:02;7.85;;;7.35;;
63005;SDS011;53704;52.532;6.426;2022-08-07T00:42:28;10.75;;;7.13;;
63005;SDS011;53704;52.532;6.426;2022-08-07T00:44:53;7.40;;;6.28;;
63005;SDS011;53704;52.532;6.426;2022-08-07T00:47:18;7.75;;;7.07;;
63005;SDS011;53704;52.532;6.426;2022-08-07T00:49:44;8.48;;;7.43;;
63005;SDS011;53704;52.532;6.426;2022-08-07T00:52:09;10.80;;;6.93;;
63005;SDS011;53704;52.532;6.426;2022-08-07T00:54:35;19.20;;;7.10;;
63005;SDS011;53704;52.532;6.426;2022-08-07T00:57:00;7.72;;;7.07;;
63005;SDS011;53704;52.532;6.426;2022-08-07T00:59:26;11.25;;;6.95;;
63005;SDS011;53704;52.532;6.426;2022-08-07T01:01:52;8.57;;;7.30;;
63005;SDS011;53704;52.532;6.426;2022-08-07T01:04:18;10.63;;;7.22;;
63005;SDS011;53704;52.532;6.426;2022-08-07T01:06:44;8.57;;;7.75;;
63005;SDS011;53704;52.532;6.426;2022-08-07T01:09:10;8.73;;;8.02;;
63005;SDS011;53704;52.532;6.426;2022-08-07T01:11:36;10.02;;;7.60;;
63005;SDS011;53704;52.532;6.426;2022-08-07T01:14:02;8.18;;;7.57;;
63005;SDS011;53704;52.532;6.426;2022-08-07T01:16:28;8.95;;;7.97;;
63005;SDS011;53704;52.532;6.426;2022-08-07T01:18:54;10.80;;;7.50;;
63005;SDS011;53704;52.532;6.426;2022-08-07T01:21:19;9.48;;;8.48;;
63005;SDS011;53704;52.532;6.426;2022-08-07T01:23:48;8.13;;;7.30;;
63005;SDS011;53704;52.532;6.426;2022-08-07T01:26:15;9.32;;;8.45;;
63005;SDS011;53704;52.532;6.426;2022-08-07T01:28:44;8.52;;;7.82;;
63005;SDS011;53704;52.532;6.426;2022-08-07T01:31:12;10.57;;;8.82;;
63005;SDS011;53704;52.532;6.426;2022-08-07T01:33:38;10.15;;;8.70;;
63005;SDS011;53704;52.532;6.426;2022-08-07T01:36:04;8.45;;;7.60;;
63005;SDS011;53704;52.532;6.426;2022-08-07T01:38:33;11.52;;;8.23;;
63005;SDS011;53704;52.532;6.426;2022-08-07T01:41:00;9.20;;;8.38;;
63005;SDS011;53704;52.532;6.426;2022-08-07T01:43:27;9.80;;;8.35;;
63005;SDS011;53704;52.532;6.426;2022-08-07T01:45:54;10.05;;;8.98;;
63005;SDS011;53704;52.532;6.426;2022-08-07T01:48:21;9.93;;;8.93;;
63005;SDS011;53704;52.532;6.426;2022-08-07T01:51:01;10.02;;;9.15;;
63005;SDS011;53704;52.532;6.426;2022-08-07T01:53:28;10.95;;;8.80;;
63005;SDS011;53704;52.532;6.426;2022-08-07T01:55:59;9.75;;;8.95;;
63005;SDS011;53704;52.532;6.426;2022-08-07T01:58:30;9.55;;;8.75;;
63005;SDS011;53704;52.532;6.426;2022-08-07T02:01:00;11.65;;;9.52;;
63005;SDS011;53704;52.532;6.426;2022-08-07T02:03:28;10.60;;;9.35;;
63005;SDS011;53704;52.532;6.426;2022-08-07T02:06:01;11.13;;;9.98;;
63005;SDS011;53704;52.532;6.426;2022-08-07T02:08:32;13.63;;;9.85;;
63005;SDS011;53704;52.532;6.426;2022-08-07T02:11:02;11.48;;;8.90;;
63005;SDS011;53704;52.532;6.426;2022-08-07T02:13:28;9.73;;;8.82;;
63005;SDS011;53704;52.532;6.426;2022-08-07T02:15:57;10.25;;;9.35;;
63005;SDS011;53704;52.532;6.426;2022-08-07T02:18:27;10.65;;;9.30;;
63005;SDS011;53704;52.532;6.426;2022-08-07T02:20:55;10.00;;;9.07;;
63005;SDS011;53704;52.532;6.426;2022-08-07T02:23:22;12.25;;;8.85;;
63005;SDS011;53704;52.532;6.426;2022-08-07T02:25:51;10.38;;;9.43;;
63005;SDS011;53704;52.532;6.426;2022-08-07T02:28:19;11.23;;;9.63;;
63005;SDS011;53704;52.532;6.426;2022-08-07T02:30:46;9.93;;;9.02;;
63005;SDS011;53704;52.532;6.426;2022-08-07T02:33:12;9.35;;;8.55;;
63005;SDS011;53704;52.532;6.426;2022-08-07T02:35:39;14.02;;;10.48;;
63005;SDS011;53704;52.532;6.426;2022-08-07T02:38:06;12.07;;;10.18;;
63005;SDS011;53704;52.532;6.426;2022-08-07T02:40:33;13.20;;;10.63;;
63005;SDS011;53704;52.532;6.426;2022-08-07T02:42:59;14.73;;;9.82;;
63005;SDS011;53704;52.532;6.426;2022-08-07T02:45:27;11.43;;;9.98;;
63005;SDS011;53704;52.532;6.426;2022-08-07T02:47:54;10.70;;;9.60;;
63005;SDS011;53704;52.532;6.426;2022-08-07T02:50:20;15.50;;;10.35;;
63005;SDS011;53704;52.532;6.426;2022-08-07T02:52:47;11.07;;;10.02;;
63005;SDS011;53704;52.532;6.426;2022-08-07T02:55:22;11.68;;;10.48;;
63005;SDS011;53704;52.532;6.426;2022-08-07T02:57:50;10.63;;;9.63;;
63005;SDS011;53704;52.532;6.426;2022-08-07T03:00:18;12.57;;;10.07;;
63005;SDS011;53704;52.532;6.426;2022-08-07T03:02:44;12.55;;;9.75;;
63005;SDS011;53704;52.532;6.426;2022-08-07T03:05:11;10.85;;;9.55;;
63005;SDS011;53704;52.532;6.426;2022-08-07T03:07:38;10.90;;;9.55;;
63005;SDS011;53704;52.532;6.426;2022-08-07T03:10:06;9.60;;;8.80;;
63005;SDS011;53704;52.532;6.426;2022-08-07T03:12:32;12.93;;;10.20;;
63005;SDS011;53704;52.532;6.426;2022-08-07T03:14:59;11.20;;;9.55;;
63005;SDS011;53704;52.532;6.426;2022-08-07T03:17:26;10.23;;;9.38;;
63005;SDS011;53704;52.532;6.426;2022-08-07T03:19:52;11.48;;;9.50;;
63005;SDS011;53704;52.532;6.426;2022-08-07T03:22:19;10.95;;;9.38;;
63005;SDS011;53704;52.532;6.426;2022-08-07T03:24:46;11.10;;;9.35;;
63005;SDS011;53704;52.532;6.426;2022-08-07T03:27:12;12.95;;;10.27;;
63005;SDS011;53704;52.532;6.426;2022-08-07T03:29:39;11.25;;;10.15;;
63005;SDS011;53704;52.532;6.426;2022-08-07T03:32:09;10.43;;;9.43;;
63005;SDS011;53704;52.532;6.426;2022-08-07T03:34:37;14.23;;;9.73;;
63005;SDS011;53704;52.532;6.426;2022-08-07T03:37:05;13.88;;;9.80;;
63005;SDS011;53704;52.532;6.426;2022-08-07T03:39:33;11.32;;;9.50;;
63005;SDS011;53704;52.532;6.426;2022-08-07T03:41:59;10.93;;;9.80;;
63005;SDS011;53704;52.532;6.426;2022-08-07T03:44:27;11.35;;;10.18;;
63005;SDS011;53704;52.532;6.426;2022-08-07T03:46:53;11.45;;;10.13;;
63005;SDS011;53704;52.532;6.426;2022-08-07T03:49:19;14.45;;;9.15;;
63005;SDS011;53704;52.532;6.426;2022-08-07T03:51:45;11.52;;;9.30;;
63005;SDS011;53704;52.532;6.426;2022-08-07T03:54:11;10.77;;;9.77;;
63005;SDS011;53704;52.532;6.426;2022-08-07T03:56:37;15.68;;;10.88;;
63005;SDS011;53704;52.532;6.426;2022-08-07T03:59:04;12.40;;;11.15;;
63005;SDS011;53704;52.532;6.426;2022-08-07T04:01:31;15.52;;;11.25;;
63005;SDS011;53704;52.532;6.426;2022-08-07T04:03:58;22.25;;;11.73;;
63005;SDS011;53704;52.532;6.426;2022-08-07T04:06:23;13.95;;;10.68;;
63005;SDS011;53704;52.532;6.426;2022-08-07T04:08:50;13.55;;;11.13;;
63005;SDS011;53704;52.532;6.426;2022-08-07T04:11:16;10.43;;;9.40;;
63005;SDS011;53704;52.532;6.426;2022-08-07T04:13:42;13.18;;;10.60;;
63005;SDS011;53704;52.532;6.426;2022-08-07T04:16:11;14.75;;;9.98;;
63005;SDS011;53704;52.532;6.426;2022-08-07T04:18:36;11.85;;;10.30;;
63005;SDS011;53704;52.532;6.426;2022-08-07T04:21:02;13.15;;;11.40;;
63005;SDS011;53704;52.532;6.426;2022-08-07T04:23:28;13.23;;;11.60;;
63005;SDS011;53704;52.532;6.426;2022-08-07T04:25:55;15.52;;;11.75;;
63005;SDS011;53704;52.532;6.426;2022-08-07T04:28:20;13.80;;;11.68;;
63005;SDS011;53704;52.532;6.426;2022-08-07T04:30:46;12.65;;;11.48;;
63005;SDS011;53704;52.532;6.426;2022-08-07T04:33:13;12.75;;;11.40;;
63005;SDS011;53704;52.532;6.426;2022-08-07T04:35:40;15.32;;;11.93;;
63005;SDS011;53704;52.532;6.426;2022-08-07T04:38:08;17.23;;;11.70;;
63005;SDS011;53704;52.532;6.426;2022-08-07T04:40:37;17.05;;;11.18;;
63005;SDS011;53704;52.532;6.426;2022-08-07T04:43:04;15.23;;;11.85;;
63005;SDS011;53704;52.532;6.426;2022-08-07T04:45:37;12.73;;;10.45;;
63005;SDS011;53704;52.532;6.426;2022-08-07T04:48:17;12.70;;;11.23;;
63005;SDS011;53704;52.532;6.426;2022-08-07T04:50:55;15.70;;;11.55;;
63005;SDS011;53704;52.532;6.426;2022-08-07T04:53:38;11.82;;;10.68;;
63005;SDS011;53704;52.532;6.426;2022-08-07T04:59:27;14.80;;;10.68;;
63005;SDS011;53704;52.532;6.426;2022-08-07T05:02:01;13.55;;;11.30;;
63005;SDS011;53704;52.532;6.426;2022-08-07T05:07:16;18.65;;;12.77;;
63005;SDS011;53704;52.532;6.426;2022-08-07T05:12:30;22.52;;;13.02;;
63005;SDS011;53704;52.532;6.426;2022-08-07T05:15:06;13.57;;;12.18;;
63005;SDS011;53704;52.532;6.426;2022-08-07T05:17:47;15.80;;;12.88;;
63005;SDS011;53704;52.532;6.426;2022-08-07T05:20:19;17.60;;;12.32;;
63005;SDS011;53704;52.532;6.426;2022-08-07T05:22:49;22.48;;;13.68;;
63005;SDS011;53704;52.532;6.426;2022-08-07T05:25:17;19.08;;;12.90;;
63005;SDS011;53704;52.532;6.426;2022-08-07T05:27:45;14.95;;;13.20;;
63005;SDS011;53704;52.532;6.426;2022-08-07T05:30:12;15.07;;;13.57;;
63005;SDS011;53704;52.532;6.426;2022-08-07T05:32:39;26.52;;;13.77;;
63005;SDS011;53704;52.532;6.426;2022-08-07T05:35:06;20.88;;;14.82;;
63005;SDS011;53704;52.532;6.426;2022-08-07T05:37:34;20.30;;;14.45;;
63005;SDS011;53704;52.532;6.426;2022-08-07T05:40:00;24.50;;;15.45;;
63005;SDS011;53704;52.532;6.426;2022-08-07T05:42:26;25.10;;;15.82;;
63005;SDS011;53704;52.532;6.426;2022-08-07T05:44:52;20.65;;;15.40;;
63005;SDS011;53704;52.532;6.426;2022-08-07T05:47:19;19.70;;;15.85;;
63005;SDS011;53704;52.532;6.426;2022-08-07T05:49:48;20.60;;;16.38;;
63005;SDS011;53704;52.532;6.426;2022-08-07T05:52:16;26.83;;;16.33;;
63005;SDS011;53704;52.532;6.426;2022-08-07T05:54:43;19.38;;;14.57;;
63005;SDS011;53704;52.532;6.426;2022-08-07T05:57:08;23.90;;;17.02;;
63005;SDS011;53704;52.532;6.426;2022-08-07T05:59:36;31.85;;;18.25;;
63005;SDS011;53704;52.532;6.426;2022-08-07T06:02:03;20.88;;;16.63;;
63005;SDS011;53704;52.532;6.426;2022-08-07T06:04:30;32.47;;;18.83;;
63005;SDS011;53704;52.532;6.426;2022-08-07T06:07:00;25.40;;;18.70;;
63005;SDS011;53704;52.532;6.426;2022-08-07T06:09:29;32.33;;;17.95;;
63005;SDS011;53704;52.532;6.426;2022-08-07T06:11:58;28.90;;;19.08;;
63005;SDS011;53704;52.532;6.426;2022-08-07T06:14:24;26.85;;;18.60;;
63005;SDS011;53704;52.532;6.426;2022-08-07T06:16:50;26.27;;;16.33;;
63005;SDS011;53704;52.532;6.426;2022-08-07T06:19:17;26.23;;;17.35;;
63005;SDS011;53704;52.532;6.426;2022-08-07T06:21:44;32.33;;;20.63;;
63005;SDS011;53704;52.532;6.426;2022-08-07T06:24:10;31.08;;;20.92;;
63005;SDS011;53704;52.532;6.426;2022-08-07T06:26:40;24.58;;;18.70;;
63005;SDS011;53704;52.532;6.426;2022-08-07T06:29:06;25.83;;;18.70;;
63005;SDS011;53704;52.532;6.426;2022-08-07T06:31:32;32.75;;;20.45;;
63005;SDS011;53704;52.532;6.426;2022-08-07T06:33:58;25.02;;;17.90;;
63005;SDS011;53704;52.532;6.426;2022-08-07T06:36:24;34.88;;;19.83;;
63005;SDS011;53704;52.532;6.426;2022-08-07T06:38:54;24.00;;;17.38;;
63005;SDS011;53704;52.532;6.426;2022-08-07T06:41:29;24.95;;;18.35;;
63005;SDS011;53704;52.532;6.426;2022-08-07T06:44:00;20.63;;;16.67;;
63005;SDS011;53704;52.532;6.426;2022-08-07T06:46:27;28.90;;;19.15;;
63005;SDS011;53704;52.532;6.426;2022-08-07T06:48:53;21.35;;;16.27;;
63005;SDS011;53704;52.532;6.426;2022-08-07T06:51:20;20.20;;;16.23;;
63005;SDS011;53704;52.532;6.426;2022-08-07T06:53:51;22.80;;;15.98;;
63005;SDS011;53704;52.532;6.426;2022-08-07T06:56:19;24.20;;;16.42;;
63005;SDS011;53704;52.532;6.426;2022-08-07T06:59:05;19.83;;;16.60;;
63005;SDS011;53704;52.532;6.426;2022-08-07T07:01:31;18.92;;;14.85;;
63005;SDS011;53704;52.532;6.426;2022-08-07T07:03:58;18.52;;;16.10;;
63005;SDS011;53704;52.532;6.426;2022-08-07T07:06:24;21.17;;;15.35;;
63005;SDS011;53704;52.532;6.426;2022-08-07T07:08:50;21.80;;;16.95;;
63005;SDS011;53704;52.532;6.426;2022-08-07T07:11:15;20.33;;;14.35;;
63005;SDS011;53704;52.532;6.426;2022-08-07T07:13:43;20.50;;;13.40;;
63005;SDS011;53704;52.532;6.426;2022-08-07T07:16:13;13.52;;;11.70;;
63005;SDS011;53704;52.532;6.426;2022-08-07T07:19:02;21.08;;;13.60;;
63005;SDS011;53704;52.532;6.426;2022-08-07T07:21:31;11.95;;;10.57;;
63005;SDS011;53704;52.532;6.426;2022-08-07T07:24:02;11.45;;;10.23;;
63005;SDS011;53704;52.532;6.426;2022-08-07T07:26:29;17.45;;;10.25;;
63005;SDS011;53704;52.532;6.426;2022-08-07T07:28:58;12.25;;;10.65;;
63005;SDS011;53704;52.532;6.426;2022-08-07T07:31:30;12.82;;;11.57;;
63005;SDS011;53704;52.532;6.426;2022-08-07T07:34:01;11.30;;;10.40;;
63005;SDS011;53704;52.532;6.426;2022-08-07T07:36:29;19.95;;;10.90;;
63005;SDS011;53704;52.532;6.426;2022-08-07T07:38:57;12.85;;;10.35;;
63005;SDS011;53704;52.532;6.426;2022-08-07T07:41:25;12.68;;;9.63;;
63005;SDS011;53704;52.532;6.426;2022-08-07T07:43:52;11.50;;;9.45;;
63005;SDS011;53704;52.532;6.426;2022-08-07T07:46:18;10.38;;;9.45;;
63005;SDS011;53704;52.532;6.426;2022-08-07T07:48:47;11.60;;;9.95;;
63005;SDS011;53704;52.532;6.426;2022-08-07T07:51:14;11.88;;;10.68;;
63005;SDS011;53704;52.532;6.426;2022-08-07T07:53:42;12.07;;;11.13;;
63005;SDS011;53704;52.532;6.426;2022-08-07T07:56:11;13.52;;;11.80;;
63005;SDS011;53704;52.532;6.426;2022-08-07T07:58:38;14.57;;;10.43;;
63005;SDS011;53704;52.532;6.426;2022-08-07T08:01:04;11.63;;;10.57;;
63005;SDS011;53704;52.532;6.426;2022-08-07T08:03:32;11.45;;;10.05;;
63005;SDS011;53704;52.532;6.426;2022-08-07T08:06:00;11.10;;;8.85;;
63005;SDS011;53704;52.532;6.426;2022-08-07T08:08:27;9.77;;;8.77;;
63005;SDS011;53704;52.532;6.426;2022-08-07T08:10:54;8.75;;;8.10;;
63005;SDS011;53704;52.532;6.426;2022-08-07T08:13:20;14.80;;;9.65;;
63005;SDS011;53704;52.532;6.426;2022-08-07T08:15:50;11.20;;;9.57;;
63005;SDS011;53704;52.532;6.426;2022-08-07T08:18:15;17.15;;;8.95;;
63005;SDS011;53704;52.532;6.426;2022-08-07T08:20:41;10.18;;;8.77;;
63005;SDS011;53704;52.532;6.426;2022-08-07T08:23:08;8.82;;;8.23;;
63005;SDS011;53704;52.532;6.426;2022-08-07T08:25:54;10.00;;;7.43;;
63005;SDS011;53704;52.532;6.426;2022-08-07T08:28:32;8.25;;;7.53;;
63005;SDS011;53704;52.532;6.426;2022-08-07T08:31:00;7.90;;;7.28;;
63005;SDS011;53704;52.532;6.426;2022-08-07T08:33:32;13.60;;;8.25;;
63005;SDS011;53704;52.532;6.426;2022-08-07T08:36:01;7.22;;;6.57;;
63005;SDS011;53704;52.532;6.426;2022-08-07T08:38:30;8.48;;;7.68;;
63005;SDS011;53704;52.532;6.426;2022-08-07T08:41:02;7.63;;;6.93;;
63005;SDS011;53704;52.532;6.426;2022-08-07T08:54:09;7.40;;;6.35;;
63005;SDS011;53704;52.532;6.426;2022-08-07T08:56:53;6.43;;;5.82;;
63005;SDS011;53704;52.532;6.426;2022-08-07T09:05:12;6.43;;;5.93;;
63005;SDS011;53704;52.532;6.426;2022-08-07T09:10:41;5.78;;;5.35;;
63005;SDS011;53704;52.532;6.426;2022-08-07T09:13:19;6.53;;;5.68;;
63005;SDS011;53704;52.532;6.426;2022-08-07T09:20:05;5.70;;;5.15;;
63005;SDS011;53704;52.532;6.426;2022-08-07T09:25:17;5.45;;;5.13;;
63005;SDS011;53704;52.532;6.426;2022-08-07T09:27:54;9.65;;;5.57;;
63005;SDS011;53704;52.532;6.426;2022-08-07T09:30:26;6.32;;;5.57;;
63005;SDS011;53704;52.532;6.426;2022-08-07T09:33:11;5.22;;;4.90;;
63005;SDS011;53704;52.532;6.426;2022-08-07T09:35:50;6.93;;;6.00;;
63005;SDS011;53704;52.532;6.426;2022-08-07T09:44:32;5.85;;;5.45;;
63005;SDS011;53704;52.532;6.426;2022-08-07T09:47:22;4.97;;;4.65;;
63005;SDS011;53704;52.532;6.426;2022-08-07T09:52:29;3.85;;;3.65;;
63005;SDS011;53704;52.532;6.426;2022-08-07T10:00:19;4.82;;;4.13;;
63005;SDS011;53704;52.532;6.426;2022-08-07T10:14:11;3.67;;;3.38;;
63005;SDS011;53704;52.532;6.426;2022-08-07T10:19:56;4.20;;;3.85;;
63005;SDS011;53704;52.532;6.426;2022-08-07T10:22:44;3.42;;;3.13;;
63005;SDS011;53704;52.532;6.426;2022-08-07T10:37:20;3.65;;;3.35;;
63005;SDS011;53704;52.532;6.426;2022-08-07T10:40:09;3.70;;;2.90;;
63005;SDS011;53704;52.532;6.426;2022-08-07T10:43:05;3.33;;;3.13;;
63005;SDS011;53704;52.532;6.426;2022-08-07T10:45:49;3.33;;;3.10;;
63005;SDS011;53704;52.532;6.426;2022-08-07T10:51:22;5.47;;;3.05;;
63005;SDS011;53704;52.532;6.426;2022-08-07T10:56:59;4.85;;;2.85;;
63005;SDS011;53704;52.532;6.426;2022-08-07T11:11:02;5.85;;;2.42;;
63005;SDS011;53704;52.532;6.426;2022-08-07T11:13:37;4.68;;;2.80;;
63005;SDS011;53704;52.532;6.426;2022-08-07T11:16:20;5.13;;;2.42;;
63005;SDS011;53704;52.532;6.426;2022-08-07T11:22:01;2.10;;;2.00;;
63005;SDS011;53704;52.532;6.426;2022-08-07T11:24:38;3.65;;;2.00;;
63005;SDS011;53704;52.532;6.426;2022-08-07T11:27:11;2.38;;;2.15;;
63005;SDS011;53704;52.532;6.426;2022-08-07T11:29:49;2.47;;;2.28;;
63005;SDS011;53704;52.532;6.426;2022-08-07T11:35:19;4.45;;;3.15;;
63005;SDS011;53704;52.532;6.426;2022-08-07T11:40:56;3.83;;;2.30;;
63005;SDS011;53704;52.532;6.426;2022-08-07T11:43:28;2.75;;;2.00;;
63005;SDS011;53704;52.532;6.426;2022-08-07T11:46:10;2.20;;;2.00;;
63005;SDS011;53704;52.532;6.426;2022-08-07T11:57:50;2.45;;;2.17;;
63005;SDS011;53704;52.532;6.426;2022-08-07T12:00:24;4.20;;;1.75;;
63005;SDS011;53704;52.532;6.426;2022-08-07T12:08:51;1.83;;;1.73;;
63005;SDS011;53704;52.532;6.426;2022-08-07T12:14:22;1.70;;;1.60;;
63005;SDS011;53704;52.532;6.426;2022-08-07T12:16:53;1.70;;;1.60;;
63005;SDS011;53704;52.532;6.426;2022-08-07T12:19:30;3.83;;;1.90;;
63005;SDS011;53704;52.532;6.426;2022-08-07T12:22:09;5.80;;;2.03;;
63005;SDS011;53704;52.532;6.426;2022-08-07T12:27:29;1.50;;;1.40;;
63005;SDS011;53704;52.532;6.426;2022-08-07T12:30:01;2.60;;;1.77;;
63005;SDS011;53704;52.532;6.426;2022-08-07T12:32:30;2.47;;;1.55;;
63005;SDS011;53704;52.532;6.426;2022-08-07T12:37:30;1.60;;;1.50;;
63005;SDS011;53704;52.532;6.426;2022-08-07T12:39:58;4.80;;;1.67;;
63005;SDS011;53704;52.532;6.426;2022-08-07T12:42:26;2.25;;;1.23;;
63005;SDS011;53704;52.532;6.426;2022-08-07T12:44:57;1.60;;;1.50;;
63005;SDS011;53704;52.532;6.426;2022-08-07T12:50:05;2.58;;;1.80;;
63005;SDS011;53704;52.532;6.426;2022-08-07T12:55:39;2.75;;;1.70;;
63005;SDS011;53704;52.532;6.426;2022-08-07T12:58:11;3.40;;;1.63;;
63005;SDS011;53704;52.532;6.426;2022-08-07T13:20:22;1.20;;;1.20;;
63005;SDS011;53704;52.532;6.426;2022-08-07T13:25:22;1.27;;;1.17;;
63005;SDS011;53704;52.532;6.426;2022-08-07T13:27:54;1.25;;;1.10;;
63005;SDS011;53704;52.532;6.426;2022-08-07T13:30:25;1.40;;;1.25;;
63005;SDS011;53704;52.532;6.426;2022-08-07T13:32:52;1.02;;;1.00;;
63005;SDS011;53704;52.532;6.426;2022-08-07T13:40:41;3.08;;;1.00;;
63005;SDS011;53704;52.532;6.426;2022-08-07T13:43:10;2.92;;;1.30;;
63005;SDS011;53704;52.532;6.426;2022-08-07T13:45:39;3.05;;;1.10;;
63005;SDS011;53704;52.532;6.426;2022-08-07T13:48:07;1.33;;;1.23;;
63005;SDS011;53704;52.532;6.426;2022-08-07T13:50:38;1.35;;;1.35;;
63005;SDS011;53704;52.532;6.426;2022-08-07T13:53:06;1.73;;;1.20;;
63005;SDS011;53704;52.532;6.426;2022-08-07T13:55:34;1.50;;;1.40;;
63005;SDS011;53704;52.532;6.426;2022-08-07T13:58:04;1.60;;;1.23;;
63005;SDS011;53704;52.532;6.426;2022-08-07T14:00:49;1.35;;;1.35;;
63005;SDS011;53704;52.532;6.426;2022-08-07T14:03:17;4.97;;;1.40;;
63005;SDS011;53704;52.532;6.426;2022-08-07T14:05:44;1.20;;;1.20;;
63005;SDS011;53704;52.532;6.426;2022-08-07T14:08:11;0.90;;;0.90;;
63005;SDS011;53704;52.532;6.426;2022-08-07T14:10:38;1.42;;;1.33;;
63005;SDS011;53704;52.532;6.426;2022-08-07T14:13:06;2.85;;;1.45;;
63005;SDS011;53704;52.532;6.426;2022-08-07T14:15:36;1.45;;;1.40;;
63005;SDS011;53704;52.532;6.426;2022-08-07T14:18:20;1.58;;;1.48;;
63005;SDS011;53704;52.532;6.426;2022-08-07T14:20:48;2.58;;;1.45;;
63005;SDS011;53704;52.532;6.426;2022-08-07T14:23:27;1.80;;;1.20;;
63005;SDS011;53704;52.532;6.426;2022-08-07T14:25:55;1.33;;;1.23;;
63005;SDS011;53704;52.532;6.426;2022-08-07T14:28:25;2.90;;;2.13;;
63005;SDS011;53704;52.532;6.426;2022-08-07T14:30:53;1.55;;;1.45;;
63005;SDS011;53704;52.532;6.426;2022-08-07T14:33:20;1.95;;;1.20;;
63005;SDS011;53704;52.532;6.426;2022-08-07T14:35:48;1.73;;;1.63;;
63005;SDS011;53704;52.532;6.426;2022-08-07T14:38:21;3.03;;;1.98;;
63005;SDS011;53704;52.532;6.426;2022-08-07T14:40:52;2.00;;;1.52;;
63005;SDS011;53704;52.532;6.426;2022-08-07T14:43:20;5.63;;;1.80;;
63005;SDS011;53704;52.532;6.426;2022-08-07T14:45:48;1.80;;;1.70;;
63005;SDS011;53704;52.532;6.426;2022-08-07T14:48:21;1.50;;;1.40;;
63005;SDS011;53704;52.532;6.426;2022-08-07T14:50:57;2.58;;;2.10;;
63005;SDS011;53704;52.532;6.426;2022-08-07T14:53:25;1.70;;;1.60;;
63005;SDS011;53704;52.532;6.426;2022-08-07T14:55:54;5.78;;;1.70;;
63005;SDS011;53704;52.532;6.426;2022-08-07T14:58:23;3.10;;;2.10;;
63005;SDS011;53704;52.532;6.426;2022-08-07T15:00:52;3.28;;;2.80;;
63005;SDS011;53704;52.532;6.426;2022-08-07T15:03:22;2.08;;;1.73;;
63005;SDS011;53704;52.532;6.426;2022-08-07T15:05:51;2.92;;;1.70;;
63005;SDS011;53704;52.532;6.426;2022-08-07T15:08:25;3.53;;;1.83;;
63005;SDS011;53704;52.532;6.426;2022-08-07T15:10:57;2.47;;;1.55;;
63005;SDS011;53704;52.532;6.426;2022-08-07T15:13:25;3.05;;;1.75;;
63005;SDS011;53704;52.532;6.426;2022-08-07T15:15:59;1.55;;;1.52;;
63005;SDS011;53704;52.532;6.426;2022-08-07T15:18:31;2.43;;;2.00;;
63005;SDS011;53704;52.532;6.426;2022-08-07T15:21:01;2.38;;;2.17;;
63005;SDS011;53704;52.532;6.426;2022-08-07T15:23:30;2.03;;;1.70;;
63005;SDS011;53704;52.532;6.426;2022-08-07T15:25:58;2.38;;;1.70;;
63005;SDS011;53704;52.532;6.426;2022-08-07T15:28:27;3.08;;;1.60;;
63005;SDS011;53704;52.532;6.426;2022-08-07T15:30:56;1.70;;;1.60;;
63005;SDS011;53704;52.532;6.426;2022-08-07T15:33:26;1.90;;;1.80;;
63005;SDS011;53704;52.532;6.426;2022-08-07T15:35:52;1.83;;;1.70;;
63005;SDS011;53704;52.532;6.426;2022-08-07T15:38:24;1.63;;;1.52;;
63005;SDS011;53704;52.532;6.426;2022-08-07T15:40:52;1.77;;;1.67;;
63005;SDS011;53704;52.532;6.426;2022-08-07T15:43:19;1.77;;;1.67;;
63005;SDS011;53704;52.532;6.426;2022-08-07T15:45:48;7.60;;;6.07;;
63005;SDS011;53704;52.532;6.426;2022-08-07T15:51:04;1.80;;;1.70;;
63005;SDS011;53704;52.532;6.426;2022-08-07T15:53:42;1.83;;;1.73;;
63005;SDS011;53704;52.532;6.426;2022-08-07T15:56:13;1.90;;;1.80;;
63005;SDS011;53704;52.532;6.426;2022-08-07T16:01:26;1.77;;;1.67;;
63005;SDS011;53704;52.532;6.426;2022-08-07T16:03:58;1.48;;;1.38;;
63005;SDS011;53704;52.532;6.426;2022-08-07T16:06:28;2.25;;;1.73;;
63005;SDS011;53704;52.532;6.426;2022-08-07T16:08:57;2.33;;;1.73;;
63005;SDS011;53704;52.532;6.426;2022-08-07T16:14:14;2.38;;;1.67;;
63005;SDS011;53704;52.532;6.426;2022-08-07T16:16:53;4.60;;;1.73;;
63005;SDS011;53704;52.532;6.426;2022-08-07T16:25:11;2.17;;;1.45;;
63005;SDS011;53704;52.532;6.426;2022-08-07T16:27:50;1.48;;;1.38;;
63005;SDS011;53704;52.532;6.426;2022-08-07T16:30:22;8.95;;;1.48;;
63005;SDS011;53704;52.532;6.426;2022-08-07T16:32:52;1.30;;;1.15;;
63005;SDS011;53704;52.532;6.426;2022-08-07T16:38:05;3.40;;;1.48;;
63005;SDS011;53704;52.532;6.426;2022-08-07T16:41:08;3.67;;;1.45;;
63005;SDS011;53704;52.532;6.426;2022-08-07T16:46:48;2.15;;;1.20;;
63005;SDS011;53704;52.532;6.426;2022-08-07T16:52:19;1.98;;;1.50;;
63005;SDS011;53704;52.532;6.426;2022-08-07T16:54:59;1.87;;;1.60;;
63005;SDS011;53704;52.532;6.426;2022-08-07T17:00:32;3.78;;;1.30;;
63005;SDS011;53704;52.532;6.426;2022-08-07T17:03:27;1.30;;;1.20;;
63005;SDS011;53704;52.532;6.426;2022-08-07T17:08:36;1.30;;;1.20;;
63005;SDS011;53704;52.532;6.426;2022-08-07T17:11:05;1.83;;;1.20;;
63005;SDS011;53704;52.532;6.426;2022-08-07T17:16:44;3.33;;;1.05;;
63005;SDS011;53704;52.532;6.426;2022-08-07T17:22:12;4.80;;;1.00;;
63005;SDS011;53704;52.532;6.426;2022-08-07T17:30:04;1.63;;;1.20;;
63005;SDS011;53704;52.532;6.426;2022-08-07T17:35:21;1.98;;;1.30;;
63005;SDS011;53704;52.532;6.426;2022-08-07T17:38:14;6.57;;;1.50;;
63005;SDS011;53704;52.532;6.426;2022-08-07T17:43:33;1.30;;;1.20;;
63005;SDS011;53704;52.532;6.426;2022-08-07T17:46:08;1.40;;;1.30;;
63005;SDS011;53704;52.532;6.426;2022-08-07T17:48:48;3.45;;;1.58;;
63005;SDS011;53704;52.532;6.426;2022-08-07T17:52:05;1.80;;;1.35;;
63005;SDS011;53704;52.532;6.426;2022-08-07T17:54:35;3.35;;;1.30;;
63005;SDS011;53704;52.532;6.426;2022-08-07T17:59:51;1.63;;;1.52;;
63005;SDS011;53704;52.532;6.426;2022-08-07T18:16:06;3.35;;;1.55;;
63005;SDS011;53704;52.532;6.426;2022-08-07T18:18:47;7.72;;;1.60;;
63005;SDS011;53704;52.532;6.426;2022-08-07T18:21:15;1.70;;;1.60;;
63005;SDS011;53704;52.532;6.426;2022-08-07T18:27:07;4.70;;;1.88;;
63005;SDS011;53704;52.532;6.426;2022-08-07T18:40:19;6.57;;;1.58;;
63005;SDS011;53704;52.532;6.426;2022-08-07T18:43:02;6.43;;;1.70;;
63005;SDS011;53704;52.532;6.426;2022-08-07T18:45:44;5.82;;;1.70;;
63005;SDS011;53704;52.532;6.426;2022-08-07T18:56:44;2.97;;;1.92;;
63005;SDS011;53704;52.532;6.426;2022-08-07T19:01:44;2.22;;;1.77;;